createdAt,value
2023-04-29T00:00:06.654Z,10.93
2023-04-29T00:02:33.728Z,11.80
2023-04-29T00:05:00.768Z,10.52
2023-04-29T00:07:27.521Z,13.20
2023-04-29T00:09:54.298Z,15.30
2023-04-29T00:12:21.114Z,12.35
2023-04-29T00:14:47.721Z,11.25
2023-04-29T00:17:14.562Z,11.85
2023-04-29T00:19:41.736Z,10.30
2023-04-29T00:22:08.233Z,15.45
2023-04-29T00:24:34.918Z,14.50
2023-04-29T00:27:02.524Z,12.35
2023-04-29T00:29:29.005Z,10.85
2023-04-29T00:31:55.719Z,11.50
2023-04-29T00:34:22.594Z,13.02
2023-04-29T00:36:49.199Z,12.35
2023-04-29T00:39:15.700Z,11.82
2023-04-29T00:41:42.628Z,12.80
2023-04-29T00:44:10.224Z,12.25
2023-04-29T00:46:37.257Z,12.27
2023-04-29T00:49:04.097Z,13.75
2023-04-29T00:51:30.870Z,16.33
2023-04-29T00:53:57.544Z,16.98
2023-04-29T00:56:24.577Z,11.38
2023-04-29T00:58:52.649Z,10.93
2023-04-29T01:01:20.211Z,12.23
2023-04-29T01:03:47.237Z,16.05
2023-04-29T01:07:14.882Z,12.23
2023-04-29T01:09:47.049Z,15.55
2023-04-29T01:12:35.398Z,17.13
2023-04-29T01:15:12.561Z,18.38
2023-04-29T01:17:48.684Z,19.45
2023-04-29T01:20:16.651Z,17.52
2023-04-29T01:22:43.121Z,19.77
2023-04-29T01:25:10.041Z,16.70
2023-04-29T01:27:46.065Z,18.13
2023-04-29T01:30:57.474Z,17.13
2023-04-29T01:33:41.381Z,18.23
2023-04-29T01:36:42.934Z,21.75
2023-04-29T01:39:26.794Z,17.83
2023-04-29T01:42:18.045Z,18.00
2023-04-29T01:44:47.568Z,18.10
2023-04-29T01:47:14.998Z,24.17
2023-04-29T01:49:41.494Z,20.85
2023-04-29T01:52:07.925Z,21.52
2023-04-29T01:54:37.328Z,21.45
2023-04-29T01:57:04.370Z,25.80
2023-04-29T01:59:31.709Z,19.83
2023-04-29T02:01:58.956Z,19.60
2023-04-29T02:04:25.876Z,23.25
2023-04-29T02:06:52.910Z,20.67
2023-04-29T02:09:19.455Z,25.38
2023-04-29T02:11:45.950Z,22.95
2023-04-29T02:14:12.601Z,24.25
2023-04-29T02:16:39.095Z,28.10
2023-04-29T02:19:05.789Z,24.02
2023-04-29T02:21:32.603Z,32.70
2023-04-29T02:23:59.028Z,27.98
2023-04-29T02:26:25.529Z,21.80
2023-04-29T02:28:52.585Z,29.60
2023-04-29T02:31:19.311Z,29.15
2023-04-29T02:33:45.961Z,23.88
2023-04-29T02:36:12.452Z,26.42
2023-04-29T02:38:39.034Z,27.58
2023-04-29T02:41:05.594Z,27.63
2023-04-29T02:43:32.129Z,27.45
2023-04-29T02:45:58.630Z,28.17
2023-04-29T02:48:25.118Z,29.15
2023-04-29T02:50:51.566Z,28.45
2023-04-29T02:53:18.003Z,35.38
2023-04-29T02:55:44.489Z,31.08
2023-04-29T02:58:11.045Z,29.83
2023-04-29T03:00:37.491Z,30.52
2023-04-29T03:03:03.993Z,36.42
2023-04-29T03:05:30.507Z,33.30
2023-04-29T03:07:57.071Z,34.30
2023-04-29T03:10:23.553Z,31.20
2023-04-29T03:12:50.055Z,32.50
2023-04-29T03:15:17.075Z,30.27
2023-04-29T03:17:45.653Z,35.28
2023-04-29T03:20:12.581Z,33.95
2023-04-29T03:22:38.999Z,31.85
2023-04-29T03:25:06.266Z,36.05
2023-04-29T03:27:32.761Z,37.05
2023-04-29T03:29:59.228Z,38.17
2023-04-29T03:32:25.992Z,34.20
2023-04-29T03:34:52.468Z,31.08
2023-04-29T03:37:18.920Z,34.35
2023-04-29T03:39:45.409Z,36.60
2023-04-29T03:42:11.965Z,41.70
2023-04-29T03:44:38.387Z,36.53
2023-04-29T03:47:05.022Z,40.20
2023-04-29T03:49:31.578Z,42.38
2023-04-29T03:51:58.146Z,37.90
2023-04-29T03:54:24.653Z,36.30
2023-04-29T03:56:51.103Z,40.47
2023-04-29T03:59:17.572Z,67.50
2023-04-29T04:01:44.274Z,43.22
2023-04-29T04:04:10.849Z,41.42
2023-04-29T04:06:37.467Z,38.63
2023-04-29T04:09:03.963Z,44.55
2023-04-29T04:11:30.500Z,46.20
2023-04-29T04:13:56.909Z,43.60
2023-04-29T04:16:23.447Z,40.17
2023-04-29T04:18:49.929Z,40.72
2023-04-29T04:21:16.381Z,42.65
2023-04-29T04:23:44.081Z,43.20
2023-04-29T04:26:10.684Z,43.00
2023-04-29T04:28:37.130Z,47.35
2023-04-29T04:31:03.906Z,86.57
2023-04-29T04:33:30.447Z,49.67
2023-04-29T04:35:57.272Z,45.67
2023-04-29T04:38:25.519Z,44.50
2023-04-29T04:40:52.091Z,55.95
2023-04-29T04:43:18.911Z,47.05
2023-04-29T04:45:45.487Z,41.30
2023-04-29T04:48:11.960Z,48.00
2023-04-29T04:50:38.416Z,45.22
2023-04-29T04:53:04.877Z,46.38
2023-04-29T04:55:33.393Z,47.05
2023-04-29T04:58:00.207Z,48.70
2023-04-29T05:00:26.680Z,56.63
2023-04-29T05:02:53.266Z,55.75
2023-04-29T05:05:19.935Z,58.88
2023-04-29T05:07:46.421Z,47.85
2023-04-29T05:10:13.050Z,47.40
2023-04-29T05:12:39.652Z,54.65
2023-04-29T05:15:06.730Z,48.47
2023-04-29T05:17:34.865Z,67.25
2023-04-29T05:20:01.299Z,51.95
2023-04-29T05:22:27.761Z,54.50
2023-04-29T05:24:55.227Z,56.67
2023-04-29T05:27:21.778Z,55.53
2023-04-29T05:29:48.213Z,63.65
2023-04-29T05:32:15.370Z,60.42
2023-04-29T05:34:41.838Z,61.30
2023-04-29T05:37:08.313Z,63.05
2023-04-29T05:39:34.773Z,63.20
2023-04-29T05:42:02.218Z,59.40
2023-04-29T05:44:28.852Z,72.70
2023-04-29T05:46:55.522Z,66.13
2023-04-29T05:49:21.990Z,66.07
2023-04-29T05:51:48.500Z,71.50
2023-04-29T05:54:15.565Z,66.07
2023-04-29T05:56:42.444Z,65.18
2023-04-29T05:59:08.900Z,67.78
2023-04-29T06:01:35.383Z,58.35
2023-04-29T06:04:02.098Z,68.57
2023-04-29T06:06:29.500Z,74.93
2023-04-29T06:08:56.698Z,62.15
2023-04-29T06:11:23.192Z,72.47
2023-04-29T06:13:49.633Z,66.20
2023-04-29T06:16:16.931Z,72.82
2023-04-29T06:18:43.357Z,65.55
2023-04-29T06:21:09.816Z,65.03
2023-04-29T06:23:36.372Z,63.85
2023-04-29T06:26:02.853Z,56.95
2023-04-29T06:28:29.946Z,59.05
2023-04-29T06:30:56.881Z,52.95
2023-04-29T06:33:23.414Z,57.67
2023-04-29T06:35:50.062Z,53.05
2023-04-29T06:38:16.508Z,46.00
2023-04-29T06:40:43.056Z,43.67
2023-04-29T06:43:09.569Z,42.97
2023-04-29T06:45:36.453Z,40.65
2023-04-29T06:48:03.627Z,40.28
2023-04-29T06:50:30.148Z,40.08
2023-04-29T06:52:56.646Z,38.20
2023-04-29T06:55:23.144Z,42.20
2023-04-29T06:57:49.602Z,39.53
2023-04-29T07:00:16.471Z,37.92
2023-04-29T07:02:43.380Z,37.40
2023-04-29T07:05:10.117Z,34.67
2023-04-29T07:07:36.720Z,36.15
2023-04-29T07:10:03.749Z,37.47
2023-04-29T07:12:30.244Z,35.50
2023-04-29T07:14:57.922Z,40.65
2023-04-29T07:17:24.406Z,37.65
2023-04-29T07:19:51.634Z,44.80
2023-04-29T07:22:18.232Z,46.28
2023-04-29T07:24:44.846Z,52.50
2023-04-29T07:27:11.278Z,52.80
2023-04-29T07:29:38.638Z,46.65
2023-04-29T07:32:05.310Z,46.65
2023-04-29T07:34:31.784Z,51.97
2023-04-29T07:36:58.322Z,45.15
2023-04-29T07:39:24.829Z,45.90
2023-04-29T07:41:52.084Z,49.33
2023-04-29T07:44:18.729Z,46.25
2023-04-29T07:46:45.329Z,41.50
2023-04-29T07:49:11.882Z,43.20
2023-04-29T07:51:41.696Z,36.38
2023-04-29T07:54:08.788Z,43.58
2023-04-29T07:56:35.798Z,62.45
2023-04-29T07:59:02.314Z,39.38
2023-04-29T08:01:28.820Z,41.55
2023-04-29T08:03:55.560Z,32.28
2023-04-29T08:06:22.499Z,32.45
2023-04-29T08:08:49.063Z,27.38
2023-04-29T08:11:19.395Z,31.67
2023-04-29T08:13:46.461Z,31.55
2023-04-29T08:16:13.481Z,28.65
2023-04-29T08:18:40.745Z,28.42
2023-04-29T08:21:07.438Z,23.95
2023-04-29T08:23:34.215Z,28.85
2023-04-29T08:26:01.253Z,24.77
2023-04-29T08:28:28.053Z,25.25
2023-04-29T08:30:55.386Z,27.50
2023-04-29T08:33:22.275Z,26.48
2023-04-29T08:35:48.880Z,23.75
2023-04-29T08:38:15.660Z,24.77
2023-04-29T08:40:45.657Z,26.45
2023-04-29T08:43:15.203Z,22.67
2023-04-29T08:45:43.280Z,28.10
2023-04-29T08:48:10.781Z,24.48
2023-04-29T08:50:41.853Z,23.27
2023-04-29T08:53:12.416Z,21.38
2023-04-29T08:55:45.107Z,26.83
2023-04-29T08:58:12.987Z,26.42
2023-04-29T09:00:44.138Z,23.08
2023-04-29T09:03:43.216Z,22.70
2023-04-29T09:06:10.967Z,28.48
2023-04-29T09:08:37.496Z,24.33
2023-04-29T09:11:05.923Z,25.67
2023-04-29T09:13:32.910Z,25.67
2023-04-29T09:15:59.544Z,26.05
2023-04-29T09:19:01.635Z,31.75
2023-04-29T09:23:57.076Z,31.77
2023-04-29T09:26:24.305Z,32.05
2023-04-29T09:29:10.017Z,34.65
2023-04-29T09:31:39.501Z,33.15
2023-04-29T09:34:06.456Z,37.22
2023-04-29T09:36:49.689Z,36.33
2023-04-29T09:39:23.730Z,37.63
2023-04-29T09:41:52.929Z,43.58
2023-04-29T09:44:20.107Z,36.72
2023-04-29T09:46:57.441Z,49.97
2023-04-29T09:49:28.942Z,46.05
2023-04-29T09:51:59.361Z,47.90
2023-04-29T09:54:28.594Z,49.85
2023-04-29T09:56:56.306Z,47.55
2023-04-29T09:59:23.695Z,55.50
2023-04-29T10:01:52.219Z,48.22
2023-04-29T10:04:20.842Z,51.33
2023-04-29T10:06:51.106Z,57.42
2023-04-29T10:09:19.048Z,60.40
2023-04-29T10:11:47.420Z,64.88
2023-04-29T10:14:16.874Z,63.28
2023-04-29T10:17:25.853Z,61.85
2023-04-29T10:20:01.923Z,66.72
2023-04-29T10:22:49.592Z,68.40
2023-04-29T10:25:18.268Z,68.28
2023-04-29T10:27:46.408Z,70.80
2023-04-29T10:30:17.674Z,77.82
2023-04-29T10:32:51.046Z,83.00
2023-04-29T10:35:22.183Z,76.70
2023-04-29T10:37:49.629Z,76.18
2023-04-29T10:40:22.278Z,84.55
2023-04-29T10:42:51.126Z,75.38
2023-04-29T10:45:32.543Z,73.32
2023-04-29T10:48:02.369Z,74.03
2023-04-29T10:50:30.030Z,69.13
2023-04-29T10:52:57.762Z,68.07
2023-04-29T10:55:25.750Z,67.70
2023-04-29T10:57:58.972Z,60.50
2023-04-29T11:00:30.397Z,57.72
2023-04-29T11:02:59.201Z,56.15
2023-04-29T11:05:36.556Z,55.47
2023-04-29T11:08:13.692Z,56.13
2023-04-29T11:10:43.692Z,48.60
2023-04-29T11:13:22.492Z,47.65
2023-04-29T11:15:50.977Z,49.88
2023-04-29T11:18:18.005Z,46.33
2023-04-29T11:21:06.140Z,44.63
2023-04-29T11:23:41.419Z,44.00
2023-04-29T11:26:08.293Z,41.92
2023-04-29T11:28:34.993Z,37.95
2023-04-29T11:31:03.769Z,35.40
2023-04-29T11:33:32.754Z,35.50
2023-04-29T11:36:00.359Z,37.03
2023-04-29T11:38:28.143Z,35.25
2023-04-29T11:40:55.967Z,37.63
2023-04-29T11:43:23.824Z,28.92
2023-04-29T11:45:51.720Z,35.42
2023-04-29T11:48:19.677Z,34.40
2023-04-29T11:50:47.821Z,36.42
2023-04-29T11:53:14.666Z,28.63
2023-04-29T11:55:44.931Z,28.90
2023-04-29T11:58:11.717Z,24.77
2023-04-29T12:00:38.617Z,29.13
2023-04-29T12:03:15.054Z,29.15
2023-04-29T12:05:49.341Z,31.20
2023-04-29T12:08:20.031Z,28.05
2023-04-29T12:10:47.826Z,24.83
2023-04-29T12:13:15.767Z,32.95
2023-04-29T12:15:42.687Z,31.92
2023-04-29T12:18:09.760Z,23.52
2023-04-29T12:20:36.670Z,25.90
2023-04-29T12:23:18.938Z,31.38
2023-04-29T12:25:54.098Z,27.33
2023-04-29T12:28:21.020Z,29.63
2023-04-29T12:30:48.241Z,27.80
2023-04-29T12:33:28.096Z,29.15
2023-04-29T12:35:57.485Z,28.80
2023-04-29T12:38:31.407Z,25.90
2023-04-29T12:41:04.495Z,26.20
2023-04-29T12:43:33.642Z,31.40
2023-04-29T12:46:05.273Z,26.83
2023-04-29T12:51:01.519Z,24.75
2023-04-29T12:53:30.034Z,22.20
2023-04-29T12:55:56.903Z,19.05
2023-04-29T12:58:23.835Z,19.45
2023-04-29T13:00:50.740Z,17.00
2023-04-29T13:03:19.185Z,15.45
2023-04-29T13:05:51.325Z,25.73
2023-04-29T13:08:18.165Z,15.98
2023-04-29T13:10:44.624Z,13.65
2023-04-29T13:13:11.195Z,18.63
2023-04-29T13:15:40.748Z,20.45
2023-04-29T13:18:07.350Z,12.07
2023-04-29T13:20:40.486Z,12.05
2023-04-29T13:23:08.869Z,8.02
2023-04-29T13:25:35.470Z,10.70
2023-04-29T13:28:02.024Z,7.75
2023-04-29T13:30:28.765Z,5.63
2023-04-29T13:33:01.243Z,8.75
2023-04-29T13:35:36.029Z,8.05
2023-04-29T13:38:02.783Z,8.18
2023-04-29T13:40:29.215Z,9.00
2023-04-29T13:43:04.390Z,5.40
2023-04-29T13:45:38.342Z,9.35
2023-04-29T13:48:17.043Z,7.78
2023-04-29T13:53:51.169Z,10.10
2023-04-29T13:59:19.566Z,14.30
2023-04-29T14:03:53.912Z,13.02
2023-04-29T14:06:20.498Z,10.13
2023-04-29T14:08:46.956Z,14.82
2023-04-29T14:11:13.564Z,16.48
2023-04-29T14:13:39.991Z,14.57
2023-04-29T14:16:07.047Z,16.30
2023-04-29T14:18:33.596Z,15.57
2023-04-29T14:21:00.008Z,15.65
2023-04-29T14:23:26.564Z,15.02
2023-04-29T14:25:54.634Z,13.65
2023-04-29T14:28:21.402Z,16.48
2023-04-29T14:30:47.882Z,25.85
2023-04-29T14:33:14.334Z,19.27
2023-04-29T14:35:41.082Z,15.10
2023-04-29T14:38:07.581Z,15.93
2023-04-29T14:40:34.109Z,19.20
2023-04-29T14:43:01.848Z,11.90
2023-04-29T14:45:28.279Z,14.15
2023-04-29T14:47:54.774Z,15.57
2023-04-29T14:50:23.312Z,9.98
2023-04-29T14:52:49.737Z,8.23
2023-04-29T14:55:16.810Z,13.30
2023-04-29T14:57:43.326Z,13.77
2023-04-29T15:00:12.138Z,30.60
2023-04-29T15:02:38.616Z,11.88
2023-04-29T15:05:05.398Z,13.23
2023-04-29T15:07:32.904Z,13.25
2023-04-29T15:09:59.411Z,10.73
2023-04-29T15:12:25.986Z,11.63
2023-04-29T15:14:53.579Z,14.75
2023-04-29T15:17:20.146Z,12.38
2023-04-29T15:19:46.851Z,10.00
2023-04-29T15:22:13.269Z,13.25
2023-04-29T15:24:39.845Z,11.50
2023-04-29T15:27:06.625Z,14.35
2023-04-29T15:29:34.545Z,10.80
2023-04-29T15:32:01.386Z,10.10
2023-04-29T15:34:28.173Z,14.70
2023-04-29T15:36:56.160Z,12.88
2023-04-29T15:39:22.940Z,16.65
2023-04-29T15:41:49.334Z,13.88
2023-04-29T15:44:15.760Z,12.30
2023-04-29T15:46:42.325Z,12.38
2023-04-29T15:49:08.737Z,11.35
2023-04-29T15:51:35.224Z,14.20
2023-04-29T15:54:01.711Z,12.65
2023-04-29T15:56:28.205Z,8.45
2023-04-29T15:58:54.690Z,10.55
2023-04-29T16:01:21.199Z,12.30
2023-04-29T16:03:48.099Z,13.20
2023-04-29T16:06:16.746Z,10.98
2023-04-29T16:08:43.322Z,14.25
2023-04-29T16:11:09.722Z,14.82
2023-04-29T16:13:36.621Z,13.60
2023-04-29T16:16:03.541Z,12.15
2023-04-29T16:18:30.073Z,16.27
2023-04-29T16:20:56.636Z,14.10
2023-04-29T16:23:23.304Z,12.52
2023-04-29T16:25:49.978Z,13.35
2023-04-29T16:28:17.275Z,12.35
2023-04-29T16:30:43.904Z,13.35
2023-04-29T16:33:10.403Z,15.82
2023-04-29T16:35:37.181Z,15.50
2023-04-29T16:38:04.826Z,18.67
2023-04-29T16:40:31.272Z,12.95
2023-04-29T16:42:57.890Z,15.52
2023-04-29T16:45:25.546Z,12.57
2023-04-29T16:47:52.706Z,10.38
2023-04-29T16:50:19.191Z,10.50
2023-04-29T16:52:46.028Z,12.65
2023-04-29T16:55:13.146Z,16.90
2023-04-29T16:57:39.821Z,16.63
2023-04-29T17:00:10.229Z,16.38
2023-04-29T17:02:47.466Z,9.75
2023-04-29T17:05:24.374Z,8.52
2023-04-29T17:07:50.854Z,11.55
2023-04-29T17:10:17.454Z,11.30
2023-04-29T17:12:44.186Z,20.42
2023-04-29T17:15:10.991Z,8.45
2023-04-29T17:17:37.817Z,10.38
2023-04-29T17:20:04.787Z,10.90
2023-04-29T17:22:32.676Z,12.25
2023-04-29T17:24:59.372Z,13.63
2023-04-29T17:27:25.995Z,5.03
2023-04-29T17:29:52.804Z,15.18
2023-04-29T17:32:28.016Z,6.97
2023-04-29T17:34:58.971Z,6.90
2023-04-29T17:37:25.835Z,12.23
2023-04-29T17:39:55.179Z,7.85
2023-04-29T17:42:22.055Z,8.68
2023-04-29T17:44:48.923Z,11.13
2023-04-29T17:47:19.213Z,14.10
2023-04-29T17:49:45.794Z,9.82
2023-04-29T17:52:12.698Z,10.38
2023-04-29T17:54:40.533Z,9.48
2023-04-29T17:57:07.827Z,9.15
2023-04-29T17:59:34.423Z,7.95
2023-04-29T18:02:01.075Z,9.55
2023-04-29T18:04:27.660Z,8.98
2023-04-29T18:06:54.225Z,9.43
2023-04-29T18:09:20.715Z,8.07
2023-04-29T18:11:47.347Z,7.90
2023-04-29T18:14:13.792Z,8.05
2023-04-29T18:16:40.344Z,8.00
2023-04-29T18:19:06.852Z,10.73
2023-04-29T18:21:33.458Z,8.77
2023-04-29T18:23:59.915Z,9.15
2023-04-29T18:26:26.578Z,12.75
2023-04-29T18:28:53.034Z,11.70
2023-04-29T18:31:20.262Z,10.52
2023-04-29T18:33:46.756Z,9.15
2023-04-29T18:36:14.206Z,5.45
2023-04-29T18:38:41.027Z,6.70
2023-04-29T18:41:08.566Z,6.20
2023-04-29T18:43:35.243Z,6.80
2023-04-29T18:46:01.728Z,10.05
2023-04-29T18:48:28.240Z,8.77
2023-04-29T18:50:59.068Z,8.02
2023-04-29T18:53:26.132Z,10.70
2023-04-29T18:55:52.568Z,9.35
2023-04-29T18:58:19.121Z,9.30
2023-04-29T19:00:45.738Z,10.82
2023-04-29T19:03:12.570Z,12.50
2023-04-29T19:05:39.041Z,8.93
2023-04-29T19:08:05.868Z,15.60
2023-04-29T19:10:32.311Z,17.35
2023-04-29T19:12:58.751Z,9.20
2023-04-29T19:15:27.931Z,8.07
2023-04-29T19:17:55.059Z,5.32
2023-04-29T19:20:21.560Z,9.45
2023-04-29T19:22:48.602Z,11.02
2023-04-29T19:25:15.534Z,9.88
2023-04-29T19:27:45.067Z,9.38
2023-04-29T19:30:12.385Z,12.50
2023-04-29T19:32:39.038Z,8.57
2023-04-29T19:35:05.897Z,11.88
2023-04-29T19:37:32.416Z,12.48
2023-04-29T19:39:58.866Z,12.00
2023-04-29T19:42:25.537Z,6.85
2023-04-29T19:44:51.951Z,11.15
2023-04-29T19:47:18.400Z,10.80
2023-04-29T19:49:44.814Z,10.85
2023-04-29T19:52:11.327Z,10.15
2023-04-29T19:54:38.145Z,8.30
2023-04-29T19:57:04.880Z,9.88
2023-04-29T19:59:31.302Z,10.35
2023-04-29T20:01:57.929Z,13.27
2023-04-29T20:04:25.412Z,12.18
2023-04-29T20:06:51.805Z,15.00
2023-04-29T20:09:18.235Z,13.50
2023-04-29T20:11:44.993Z,14.57
2023-04-29T20:14:11.632Z,8.68
2023-04-29T20:16:38.106Z,7.50
2023-04-29T20:19:04.516Z,8.70
2023-04-29T20:21:32.455Z,13.48
2023-04-29T20:23:58.928Z,13.23
2023-04-29T20:26:27.164Z,9.57
2023-04-29T20:28:53.613Z,15.82
2023-04-29T20:31:20.183Z,11.10
2023-04-29T20:33:46.943Z,10.50
2023-04-29T20:36:13.370Z,12.40
2023-04-29T20:38:39.842Z,10.68
2023-04-29T20:41:06.312Z,15.00
2023-04-29T20:43:32.777Z,15.63
2023-04-29T20:46:00.496Z,12.52
2023-04-29T20:48:28.315Z,13.48
2023-04-29T20:50:54.814Z,10.30
2023-04-29T20:53:22.078Z,11.55
2023-04-29T20:55:48.603Z,13.13
2023-04-29T20:58:16.280Z,14.77
2023-04-29T21:00:42.931Z,11.02
2023-04-29T21:03:10.355Z,16.00
2023-04-29T21:05:36.779Z,10.63
2023-04-29T21:08:03.296Z,7.63
2023-04-29T21:10:29.731Z,9.00
2023-04-29T21:12:56.298Z,12.35
2023-04-29T21:15:22.849Z,10.65
2023-04-29T21:17:49.354Z,11.05
2023-04-29T21:20:17.163Z,11.95
2023-04-29T21:22:44.989Z,15.60
2023-04-29T21:25:11.531Z,7.65
2023-04-29T21:27:37.997Z,11.32
2023-04-29T21:30:04.957Z,11.43
2023-04-29T21:32:33.544Z,13.70
2023-04-29T21:35:00.177Z,10.65
2023-04-29T21:37:26.623Z,14.25
2023-04-29T21:39:53.402Z,13.40
2023-04-29T21:42:23.191Z,9.93
2023-04-29T21:44:49.701Z,13.75
2023-04-29T21:47:16.420Z,11.68
2023-04-29T21:49:42.862Z,7.25
2023-04-29T21:52:09.382Z,6.32
2023-04-29T21:54:35.804Z,9.00
2023-04-29T21:57:02.954Z,9.88
2023-04-29T21:59:34.198Z,10.48
2023-04-29T22:02:01.281Z,10.00
2023-04-29T22:04:28.220Z,12.10
2023-04-29T22:06:56.024Z,10.70
2023-04-29T22:09:22.603Z,11.88
2023-04-29T22:11:49.074Z,13.43
2023-04-29T22:14:15.796Z,9.73
2023-04-29T22:16:42.499Z,12.18
2023-04-29T22:19:09.181Z,9.50
2023-04-29T22:21:35.793Z,12.15
2023-04-29T22:24:02.276Z,9.18
2023-04-29T22:26:28.811Z,17.85
2023-04-29T22:28:56.815Z,11.60
2023-04-29T22:31:23.393Z,10.52
2023-04-29T22:33:49.981Z,10.15
2023-04-29T22:36:16.450Z,10.27
2023-04-29T22:38:42.890Z,14.35
2023-04-29T22:41:11.628Z,11.30
2023-04-29T22:43:38.343Z,12.90
2023-04-29T22:46:05.023Z,9.93
2023-04-29T22:48:31.563Z,8.98
2023-04-29T22:50:59.418Z,8.35
2023-04-29T22:53:26.127Z,11.02
2023-04-29T22:55:58.227Z,8.70
2023-04-29T22:58:26.230Z,10.40
2023-04-29T23:00:57.521Z,5.57
2023-04-29T23:03:24.532Z,8.82
2023-04-29T23:05:51.176Z,9.50
2023-04-29T23:08:17.646Z,7.80
2023-04-29T23:10:51.162Z,10.73
2023-04-29T23:13:18.016Z,11.75
2023-04-29T23:15:45.380Z,11.55
2023-04-29T23:18:12.071Z,13.15
2023-04-29T23:20:38.628Z,9.93
2023-04-29T23:23:05.283Z,11.75
2023-04-29T23:25:31.846Z,4.70
2023-04-29T23:27:58.380Z,5.18
2023-04-29T23:30:24.885Z,12.82
2023-04-29T23:32:51.397Z,8.80
2023-04-29T23:35:17.904Z,10.25
2023-04-29T23:37:44.430Z,9.90
2023-04-29T23:40:11.092Z,6.72
2023-04-29T23:42:37.597Z,10.00
2023-04-29T23:45:04.602Z,10.85
2023-04-29T23:47:31.076Z,11.68
2023-04-29T23:49:57.529Z,7.85
2023-04-29T23:52:24.608Z,9.40
2023-04-29T23:54:51.064Z,13.70
2023-04-29T23:57:17.904Z,12.57
2023-04-29T23:59:45.495Z,18.45
